Northumberland, New Hampshire
Current Conditions -  °F | °C
As of 3:17 AM on Friday 19 Dec 2014 (Local Time) from KHIE Reporting Station
Overcast Overcast  
Wind Chill: 23°   Ceiling: 1400
Heat Index: 28°   Visibility: 10mi
Dew Point: 23°   Wind: 5mph
Humidity: 81%   Direction: 270°W
Pressure: 29.85"   Gusts: NA
Location:  44.3946°N, 71.4295°W
Report Text: KHIE 190817Z AUTO 27004KT 10SM BKN014 OVC021 M02/M05 A2985 RMK AO2 T10221050
Loading
Personal Weather Stations






























Interactive Weather Map New forecast layout! Learn more

10-Day Weather Forecast

Advertisements
Track Severe Weather on mobile